Time;durP1;ratioP1;P1;durP2;ratioP2;P2;SDS_P1;SDS_P2;PMS_P1;PMS_P2;Temp;Humidity;BMP_temperature;BMP_pressure;BME280_temperature;BME280_humidity;BME280_pressure;Samples;Min_cycle;Max_cycle;Signal;HPM_P1;HPM_P2
2022/07/30 00:00:26;;;;;;;6.60;4.97;;;;;;;23.53;72.43;99896.00;5074979;28;20127;-71
2022/07/30 00:02:55;;;;;;;9.95;5.10;;;;;;;23.59;72.13;99878.97;5073415;28;20435;-73
2022/07/30 00:05:23;;;;;;;8.77;5.10;;;;;;;23.72;71.12;99887.34;5073770;28;20435;-72
2022/07/30 00:07:52;;;;;;;6.15;4.63;;;;;;;23.64;71.25;99890.16;5073512;28;20106;-73
2022/07/30 00:10:21;;;;;;;6.75;5.18;;;;;;;23.62;71.59;99886.78;5075050;28;20049;-71
2022/07/30 00:12:50;;;;;;;7.75;4.88;;;;;;;23.75;70.57;99891.59;5074339;28;20098;-72
2022/07/30 00:15:18;;;;;;;7.57;5.00;;;;;;;23.59;71.43;99884.44;5074407;28;20481;-71
2022/07/30 00:17:47;;;;;;;7.40;4.97;;;;;;;23.66;71.84;99893.56;5074487;28;20055;-71
2022/07/30 00:20:17;;;;;;;8.18;5.43;;;;;;;23.76;71.46;99896.00;5074651;28;20048;-71
2022/07/30 00:22:46;;;;;;;8.27;5.30;;;;;;;23.62;72.18;99898.50;5074289;28;20040;-72
2022/07/30 00:25:15;;;;;;;7.40;4.90;;;;;;;23.77;71.64;99893.09;5074705;28;20067;-72
2022/07/30 00:27:44;;;;;;;6.65;5.10;;;;;;;23.58;72.61;99893.59;5074240;28;20047;-72
2022/07/30 00:30:13;;;;;;;7.25;4.72;;;;;;;23.65;72.45;99892.72;5074397;28;20048;-72
2022/07/30 00:32:41;;;;;;;9.82;5.10;;;;;;;23.52;73.27;99886.16;5073721;28;20055;-73
2022/07/30 00:35:10;;;;;;;6.35;4.53;;;;;;;23.64;72.35;99879.25;5074479;28;20111;-73
2022/07/30 00:37:40;;;;;;;7.30;4.95;;;;;;;23.53;73.20;99879.69;5074243;28;20037;-73
2022/07/30 00:40:10;;;;;;;7.38;4.80;;;;;;;23.41;73.72;99882.84;5074357;28;20044;-73
2022/07/30 00:42:40;;;;;;;7.15;5.15;;;;;;;23.51;73.26;99884.47;5074101;28;20040;-77
2022/07/30 00:45:10;;;;;;;7.15;4.78;;;;;;;23.39;74.84;99878.63;5073978;28;20044;-73
2022/07/30 00:47:38;;;;;;;8.05;5.25;;;;;;;23.42;74.24;99880.97;5073984;28;20037;-76
2022/07/30 00:50:10;;;;;;;6.43;4.80;;;;;;;23.43;73.97;99878.06;5074183;28;20102;-73
2022/07/30 00:52:40;;;;;;;6.47;4.70;;;;;;;23.50;73.83;99886.34;5072815;28;20079;-72
2022/07/30 00:55:11;;;;;;;6.85;5.30;;;;;;;23.51;73.78;99879.88;5073925;28;20090;-72
2022/07/30 00:57:39;;;;;;;6.40;5.05;;;;;;;23.56;73.39;99879.31;5073635;28;20036;-73
2022/07/30 01:00:11;;;;;;;8.15;5.30;;;;;;;23.35;75.11;99880.84;5074181;28;20044;-73
2022/07/30 01:02:39;;;;;;;9.25;5.63;;;;;;;23.29;75.79;99881.59;5073721;28;20051;-77
2022/07/30 01:05:08;;;;;;;6.72;4.90;;;;;;;23.46;73.60;99886.91;5073771;28;20132;-73
2022/07/30 01:07:43;;;;;;;8.65;5.47;;;;;;;23.28;75.20;99887.22;5072267;28;20045;-74
2022/07/30 01:10:15;;;;;;;8.73;5.20;;;;;;;23.50;73.70;99885.50;5073563;28;20044;-73
2022/07/30 01:12:44;;;;;;;7.65;5.68;;;;;;;23.53;73.12;99888.69;5073409;28;20397;-73
2022/07/30 01:15:12;;;;;;;7.35;5.53;;;;;;;23.40;73.82;99883.88;5073873;28;20044;-72
2022/07/30 01:17:40;;;;;;;7.88;5.40;;;;;;;23.51;72.78;99874.41;5073172;28;20051;-72
2022/07/30 01:20:14;;;;;;;7.80;4.85;;;;;;;23.52;72.40;99873.38;5072268;28;20055;-71
2022/07/30 01:22:54;;;;;;;10.07;5.53;;;;;;;23.63;71.76;99867.53;5071813;28;20106;-72
2022/07/30 01:25:37;;;;;;;8.77;5.00;;;;;;;23.64;71.22;99861.06;5073516;28;20055;-71
2022/07/30 01:28:07;;;;;;;;;;;;;;;23.60;71.59;99864.34;5074020;28;20071;-71
2022/07/30 01:30:40;;;;;;;7.80;5.35;;;;;;;23.68;70.92;99866.97;5073451;28;19926;-71
2022/07/30 01:33:14;;;;;;;6.68;5.20;;;;;;;23.65;71.26;99870.09;5073573;28;20052;-71
2022/07/30 01:35:44;;;;;;;6.85;5.00;;;;;;;23.70;71.08;99879.38;5073355;28;20072;-71
2022/07/30 01:38:15;;;;;;;8.70;6.00;;;;;;;23.73;70.86;99880.88;5072235;28;20075;-72
2022/07/30 01:40:46;;;;;;;7.45;5.20;;;;;;;23.76;70.74;99880.50;5073249;28;20110;-72
2022/07/30 01:43:16;;;;;;;7.40;5.50;;;;;;;23.72;71.23;99887.34;5073389;28;20050;-72
2022/07/30 01:45:46;;;;;;;7.30;5.22;;;;;;;23.62;72.03;99879.44;5072957;28;20040;-72
2022/07/30 01:48:21;;;;;;;7.00;4.93;;;;;;;23.55;73.07;99872.19;5073564;28;20041;-71
2022/07/30 01:50:54;;;;;;;7.20;5.38;;;;;;;23.43;74.10;99875.34;5073154;28;20037;-71
2022/07/30 01:53:28;;;;;;;7.05;5.28;;;;;;;23.30;75.18;99874.28;5073382;28;20045;-71
2022/07/30 01:56:00;;;;;;;7.80;5.28;;;;;;;23.32;75.32;99870.34;5072900;28;20468;-71
2022/07/30 01:58:33;;;;;;;7.82;5.60;;;;;;;23.41;74.61;99863.78;5073245;28;20041;-71
2022/07/30 02:01:01;;;;;;;8.38;5.47;;;;;;;23.27;75.94;99858.34;5072796;28;20047;-71
2022/07/30 02:03:30;;;;;;;8.73;5.05;;;;;;;23.18;76.93;99863.00;5073148;28;20478;-71
2022/07/30 02:06:04;;;;;;;7.03;5.20;;;;;;;23.09;77.84;99861.38;5072528;28;20444;-72
2022/07/30 02:08:38;;;;;;;9.82;5.65;;;;;;;23.15;78.22;99852.47;5073134;28;20041;-72
2022/07/30 02:11:10;;;;;;;8.27;5.75;;;;;;;22.96;79.91;99852.97;5072902;28;20044;-71
2022/07/30 02:13:46;;;;;;;6.40;5.30;;;;;;;22.93;80.91;99845.16;5072966;28;20040;-71
2022/07/30 02:16:19;;;;;;;6.88;5.70;;;;;;;22.72;83.57;99841.22;5072964;28;20135;-72
2022/07/30 02:18:57;;;;;;;7.18;5.55;;;;;;;22.75;83.58;99846.28;5072717;28;20477;-72
2022/07/30 02:21:27;;;;;;;7.63;5.60;;;;;;;22.69;83.99;99838.88;5072945;28;20069;-74
2022/07/30 02:24:08;;;;;;;7.93;5.90;;;;;;;22.68;84.73;99829.03;5072752;28;20036;-74
2022/07/30 02:26:38;;;;;;;8.02;5.97;;;;;;;22.61;85.43;99821.75;5073027;28;20076;-74
2022/07/30 02:29:08;;;;;;;9.25;5.75;;;;;;;22.48;87.42;99828.59;5072526;28;20048;-74
2022/07/30 02:31:40;;;;;;;9.55;5.90;;;;;;;22.51;86.90;99824.72;5072774;28;20051;-74
2022/07/30 02:34:10;;;;;;;7.82;6.15;;;;;;;22.42;88.40;99823.06;5073049;28;20055;-75
2022/07/30 02:36:42;;;;;;;9.40;5.78;;;;;;;22.36;89.61;99827.31;5073538;28;20400;-72
2022/07/30 02:39:13;;;;;;;7.97;5.95;;;;;;;22.28;90.86;99814.63;5076733;28;20481;-72
2022/07/30 02:41:44;;;;;;;9.23;6.00;;;;;;;22.13;93.06;99813.72;5076545;28;20036;-73
2022/07/30 02:44:18;;;;;;;9.60;6.10;;;;;;;22.18;93.43;99815.88;5076846;28;20044;-71
2022/07/30 02:46:47;;;;;;;11.23;6.53;;;;;;;21.98;96.04;99819.00;5075007;28;20048;-72
2022/07/30 02:49:19;;;;;;;8.10;5.95;;;;;;;21.99;95.75;99819.84;5076310;28;20127;-72
2022/07/30 02:51:48;;;;;;;10.63;6.32;;;;;;;22.02;96.37;99813.22;5076377;28;20119;-72
2022/07/30 02:54:19;;;;;;;9.85;6.20;;;;;;;22.07;95.65;99819.84;5076189;28;20044;-72
2022/07/30 02:56:50;;;;;;;10.27;6.20;;;;;;;22.06;95.63;99818.13;5076229;28;20048;-72
2022/07/30 02:59:21;;;;;;;8.20;6.25;;;;;;;22.00;96.72;99829.66;5076321;28;20036;-71
2022/07/30 03:01:51;;;;;;;10.20;5.70;;;;;;;21.94;97.17;99830.41;5076178;28;20037;-72
2022/07/30 03:04:21;;;;;;;9.20;5.82;;;;;;;22.10;95.78;99830.38;5076648;28;20401;-72
2022/07/30 03:06:51;;;;;;;8.88;5.63;;;;;;;22.01;96.53;99836.81;5075677;28;20048;-72
2022/07/30 03:09:20;;;;;;;8.18;5.57;;;;;;;21.96;97.02;99831.06;5076258;28;20041;-71
2022/07/30 03:11:52;;;;;;;6.78;5.30;;;;;;;21.95;97.79;99832.09;5075916;28;20068;-72
2022/07/30 03:14:21;;;;;;;7.23;5.33;;;;;;;21.90;98.27;99826.31;5076128;28;20049;-71
2022/07/30 03:16:55;;;;;;;8.80;5.75;;;;;;;21.83;99.92;99819.91;5075635;28;20051;-72
2022/07/30 03:19:25;;;;;;;7.17;5.30;;;;;;;21.83;100.00;99811.78;5075693;28;20041;-72
2022/07/30 03:21:56;;;;;;;7.15;5.28;;;;;;;21.80;100.00;99817.53;5075719;28;20485;-71
2022/07/30 03:24:25;;;;;;;10.43;5.75;;;;;;;21.65;100.00;99826.41;5075551;28;20048;-72
2022/07/30 03:26:56;;;;;;;7.50;5.30;;;;;;;21.74;100.00;99823.69;5075387;28;20041;-72
2022/07/30 03:29:27;;;;;;;8.00;5.47;;;;;;;21.61;100.00;99822.34;5075720;28;20128;-72
2022/07/30 03:31:56;;;;;;;8.40;5.50;;;;;;;21.61;100.00;99824.19;5075298;28;20048;-72
2022/07/30 03:34:27;;;;;;;9.82;5.72;;;;;;;21.70;100.00;99823.16;5075492;28;20044;-72
2022/07/30 03:36:57;;;;;;;7.60;5.72;;;;;;;21.54;100.00;99818.66;5075655;28;20466;-70
2022/07/30 03:39:26;;;;;;;7.25;5.30;;;;;;;21.39;100.00;99825.78;5075613;28;20503;-71
2022/07/30 03:41:56;;;;;;;9.75;5.53;;;;;;;21.47;100.00;99817.63;5075196;28;20409;-71
2022/07/30 03:44:24;;;;;;;7.22;5.72;;;;;;;21.52;100.00;99830.66;5075796;28;20048;-71
2022/07/30 03:46:53;;;;;;;6.35;5.18;;;;;;;21.48;100.00;99819.31;5074978;28;20040;-72
2022/07/30 03:49:23;;;;;;;7.20;5.55;;;;;;;21.29;100.00;99825.13;5074142;28;20082;-71
2022/07/30 03:51:53;;;;;;;8.15;6.03;;;;;;;21.45;100.00;99814.25;5075112;28;20126;-72
2022/07/30 03:54:22;;;;;;;7.47;5.60;;;;;;;21.52;100.00;99812.56;5075225;28;20067;-72
2022/07/30 03:56:50;;;;;;;9.40;5.47;;;;;;;21.62;100.00;99815.91;5074842;28;20375;-72
2022/07/30 03:59:20;;;;;;;7.35;5.32;;;;;;;21.53;100.00;99816.94;5075288;28;20445;-72
2022/07/30 04:01:48;;;;;;;8.23;5.47;;;;;;;21.48;100.00;99813.91;5073905;28;20405;-72
2022/07/30 04:04:16;;;;;;;7.95;5.35;;;;;;;21.42;100.00;99814.56;5075217;28;20153;-72
2022/07/30 04:06:44;;;;;;;8.07;5.55;;;;;;;21.55;100.00;99808.63;5074896;28;20052;-72
2022/07/30 04:09:14;;;;;;;7.35;5.28;;;;;;;21.69;100.00;99818.75;5074676;28;20051;-72
2022/07/30 04:11:44;;;;;;;6.35;5.30;;;;;;;21.75;100.00;99819.94;5074836;28;20044;-71
2022/07/30 04:14:12;;;;;;;8.88;5.38;;;;;;;21.78;100.00;99819.59;5074782;28;20048;-71
2022/07/30 04:16:46;;;;;;;8.05;5.43;;;;;;;21.86;100.00;99825.00;5073516;28;20394;-71
2022/07/30 04:19:18;;;;;;;7.30;5.18;;;;;;;21.63;100.00;99823.03;5074351;28;20041;-71
2022/07/30 04:21:49;;;;;;;9.85;5.35;;;;;;;21.85;100.00;99826.84;5074670;28;20044;-71
2022/07/30 04:24:20;;;;;;;7.82;4.57;;;;;;;21.83;100.00;99825.34;5074728;28;20067;-71
2022/07/30 04:26:48;;;;;;;6.18;4.60;;;;;;;21.82;100.00;99820.94;5074695;28;20040;-71
2022/07/30 04:29:17;;;;;;;7.28;5.28;;;;;;;21.85;100.00;99820.59;5074467;28;20048;-71
2022/07/30 04:31:54;;;;;;;6.82;4.90;;;;;;;22.10;100.00;99835.81;5074763;28;20049;-72
2022/07/30 04:34:23;;;;;;;7.25;4.97;;;;;;;21.91;100.00;99831.59;5072856;28;20062;-71
2022/07/30 04:36:51;;;;;;;8.02;5.03;;;;;;;21.74;100.00;99834.53;5074221;28;20070;-71
2022/07/30 04:39:19;;;;;;;7.43;5.22;;;;;;;21.81;100.00;99833.66;5074355;28;20040;-71
2022/07/30 04:41:47;;;;;;;6.53;4.82;;;;;;;21.86;100.00;99833.97;5074240;28;20041;-71
2022/07/30 04:44:18;;;;;;;6.60;5.25;;;;;;;21.64;100.00;99835.59;5073726;28;20056;-71
2022/07/30 04:46:46;;;;;;;6.28;5.03;;;;;;;21.88;100.00;99831.09;5073929;28;20045;-71
2022/07/30 04:49:18;;;;;;;6.22;4.85;;;;;;;22.06;100.00;99828.97;5074096;28;20389;-71
2022/07/30 04:51:48;;;;;;;5.97;5.00;;;;;;;22.15;100.00;99833.38;5074000;28;20047;-71
2022/07/30 04:54:18;;;;;;;6.53;5.20;;;;;;;22.05;100.00;99835.44;5073982;28;20047;-71
2022/07/30 04:56:47;;;;;;;6.57;4.78;;;;;;;22.02;100.00;99837.66;5073987;28;20516;-71
2022/07/30 04:59:25;;;;;;;6.40;4.88;;;;;;;21.98;100.00;99838.00;5073439;28;20478;-71
2022/07/30 05:01:55;;;;;;;6.95;5.30;;;;;;;21.91;100.00;99837.03;5074143;28;20139;-71
2022/07/30 05:04:27;;;;;;;7.28;5.13;;;;;;;22.18;100.00;99832.19;5073808;28;20051;-71
2022/07/30 05:06:57;;;;;;;8.48;5.13;;;;;;;22.33;100.00;99827.69;5073519;28;20486;-71
2022/07/30 05:09:26;;;;;;;6.00;4.70;;;;;;;22.39;100.00;99837.00;5073540;28;20078;-72
2022/07/30 05:11:55;;;;;;;8.30;5.05;;;;;;;22.34;100.00;99831.25;5073412;28;20045;-74
2022/07/30 05:14:25;;;;;;;8.65;5.43;;;;;;;22.44;100.00;99837.31;5073859;28;20052;-72
2022/07/30 05:16:54;;;;;;;8.13;5.05;;;;;;;22.35;100.00;99827.50;5072301;28;20052;-71
2022/07/30 05:19:23;;;;;;;8.32;5.38;;;;;;;22.74;100.00;99827.44;5073323;28;20120;-70
2022/07/30 05:21:53;;;;;;;8.50;5.20;;;;;;;23.51;96.87;99817.25;5073394;28;20045;-70
2022/07/30 05:24:21;;;;;;;6.70;4.88;;;;;;;23.98;90.51;99821.53;5073285;28;20044;-70
2022/07/30 05:26:50;;;;;;;7.95;4.75;;;;;;;24.90;80.33;99819.06;5073462;28;20048;-70
2022/07/30 05:29:18;;;;;;;7.97;4.75;;;;;;;24.84;80.21;99820.69;5073037;28;20470;-70
2022/07/30 05:31:47;;;;;;;7.53;4.90;;;;;;;25.43;74.95;99829.59;5073271;28;20508;-70
2022/07/30 05:34:16;;;;;;;7.35;4.72;;;;;;;25.64;72.96;99835.00;5071649;28;20063;-69
2022/07/30 05:36:45;;;;;;;6.53;4.70;;;;;;;25.60;72.01;99834.56;5073158;28;20044;-71
2022/07/30 05:39:15;;;;;;;8.38;4.70;;;;;;;26.38;67.48;99837.16;5073088;28;20059;-70
2022/07/30 05:41:43;;;;;;;5.53;4.38;;;;;;;26.77;64.27;99840.00;5073504;28;20050;-74
2022/07/30 05:44:11;;;;;;;8.05;4.47;;;;;;;26.87;63.36;99841.50;5072846;28;20094;-73
2022/07/30 05:46:39;;;;;;;7.97;4.32;;;;;;;26.61;63.25;99847.72;5071889;28;20113;-72
2022/07/30 05:49:08;;;;;;;5.95;4.28;;;;;;;26.05;65.79;99851.47;5072811;28;20044;-73
2022/07/30 05:51:36;;;;;;;5.82;4.35;;;;;;;26.96;62.58;99843.81;5073136;28;20044;-72
2022/07/30 05:54:05;;;;;;;6.88;4.38;;;;;;;27.42;60.12;99839.47;5072981;28;20504;-71
2022/07/30 05:56:34;;;;;;;9.52;4.47;;;;;;;28.12;57.25;99846.09;5072923;28;20044;-69
2022/07/30 05:59:03;;;;;;;6.65;4.43;;;;;;;28.45;55.24;99849.56;5072815;28;20047;-70
2022/07/30 06:01:31;;;;;;;6.68;4.30;;;;;;;28.83;53.69;99848.72;5072918;28;20127;-72
2022/07/30 06:03:59;;;;;;;7.85;4.13;;;;;;;28.20;55.67;99848.59;5072863;28;20040;-72
2022/07/30 06:06:28;;;;;;;6.90;4.13;;;;;;;27.15;59.77;99853.13;5073028;28;20083;-72
2022/07/30 06:08:56;;;;;;;6.90;4.13;;;;;;;26.22;64.98;99855.53;5072786;28;20064;-71
2022/07/30 06:11:24;;;;;;;6.90;4.10;;;;;;;25.97;65.68;99851.66;5073205;28;20041;-69
2022/07/30 06:13:53;;;;;;;9.20;4.80;;;;;;;25.22;69.71;99835.97;5077555;28;20044;-69
2022/07/30 06:16:22;;;;;;;6.95;4.55;;;;;;;25.07;70.47;99839.59;5076816;28;20452;-69
2022/07/30 06:18:50;;;;;;;6.10;4.50;;;;;;;24.77;72.90;99836.13;5076826;28;20044;-70
2022/07/30 06:21:18;;;;;;;7.40;4.53;;;;;;;24.84;72.55;99845.22;5076518;28;20587;-70
2022/07/30 06:23:46;;;;;;;8.23;4.60;;;;;;;24.71;72.45;99838.81;5076946;28;20124;-68
2022/07/30 06:26:14;;;;;;;8.80;4.68;;;;;;;24.65;70.52;99845.03;5076806;28;20040;-72
2022/07/30 06:28:43;;;;;;;7.25;4.80;;;;;;;24.71;70.06;99844.25;5076476;28;20045;-70
2022/07/30 06:31:13;;;;;;;6.55;5.10;;;;;;;24.69;69.80;99851.75;5076391;28;20495;-71
2022/07/30 06:33:41;;;;;;;5.68;4.43;;;;;;;24.57;75.44;99856.03;5076913;28;20435;-70
2022/07/30 06:36:10;;;;;;;5.97;4.78;;;;;;;24.44;77.02;99854.84;5076334;28;20068;-73
2022/07/30 06:38:41;;;;;;;8.05;4.90;;;;;;;24.33;78.86;99849.91;5075536;28;20044;-73
2022/07/30 06:41:09;;;;;;;7.05;4.63;;;;;;;24.52;78.23;99854.75;5076187;28;20535;-70
2022/07/30 06:43:37;;;;;;;7.90;4.80;;;;;;;24.31;80.93;99859.25;5076158;28;20079;-70
2022/07/30 06:46:06;;;;;;;6.43;4.85;;;;;;;24.33;81.38;99866.25;5076385;28;20078;-68
2022/07/30 06:48:41;;;;;;;7.35;4.03;;;;;;;24.17;83.28;99869.97;5079090;28;20044;-70
2022/07/30 06:51:09;;;;;;;7.10;4.40;;;;;;;24.35;81.84;99866.06;5076209;28;20047;-75
2022/07/30 06:53:37;;;;;;;8.27;4.50;;;;;;;24.43;80.13;99853.16;5076251;28;20052;-71
2022/07/30 06:56:09;;;;;;;6.35;4.10;;;;;;;24.27;80.28;99856.06;5075872;28;20090;-74
2022/07/30 06:58:38;;;;;;;6.00;4.15;;;;;;;24.26;80.06;99857.09;5076397;28;20493;-72
2022/07/30 07:01:06;;;;;;;6.00;4.18;;;;;;;24.35;79.54;99846.97;5075960;28;20123;-69
2022/07/30 07:03:40;;;;;;;7.55;4.07;;;;;;;24.48;78.29;99845.25;5076296;28;20127;-69
2022/07/30 07:06:08;;;;;;;5.63;3.95;;;;;;;24.98;75.56;99850.81;5075697;28;20052;-74
2022/07/30 07:08:37;;;;;;;6.15;3.95;;;;;;;25.38;72.45;99857.47;5074459;28;20056;-72
2022/07/30 07:11:05;;;;;;;6.50;4.22;;;;;;;25.22;72.24;99855.06;5075876;28;20124;-73
2022/07/30 07:13:34;;;;;;;9.23;3.90;;;;;;;25.23;71.76;99848.56;5075778;28;20075;-73
2022/07/30 07:16:02;;;;;;;5.70;4.35;;;;;;;25.73;69.96;99846.66;5075752;28;20047;-70
2022/07/30 07:18:30;;;;;;;6.80;4.78;;;;;;;25.58;69.61;99847.59;5075640;28;20040;-69
2022/07/30 07:21:00;;;;;;;6.25;4.35;;;;;;;25.32;70.42;99836.47;5074469;28;20048;-69
2022/07/30 07:23:28;;;;;;;7.13;4.75;;;;;;;25.08;71.84;99833.09;5074270;28;20044;-69
2022/07/30 07:26:10;;;;;;;6.38;4.90;;;;;;;24.77;73.61;99832.56;5075689;28;20067;-69
2022/07/30 07:28:39;;;;;;;7.70;4.80;;;;;;;24.97;72.06;99832.75;5075541;28;20145;-69
2022/07/30 07:31:10;;;;;;;6.80;4.60;;;;;;;25.00;71.78;99833.22;5075336;28;20135;-69
2022/07/30 07:34:01;;;;;;;6.95;4.45;;;;;;;25.04;71.50;99823.63;5075607;28;20060;-74
2022/07/30 07:36:31;;;;;;;6.25;4.18;;;;;;;24.75;71.86;99829.19;5075935;28;20474;-73
2022/07/30 07:38:59;;;;;;;5.80;4.13;;;;;;;24.81;71.70;99823.81;5075542;28;20044;-74
2022/07/30 07:41:27;;;;;;;10.35;4.35;;;;;;;24.40;80.78;99829.00;5075118;28;20045;-74
2022/07/30 07:43:55;;;;;;;9.20;4.65;;;;;;;24.43;87.87;99830.50;5075158;28;20500;-74
2022/07/30 07:46:23;;;;;;;9.80;4.95;;;;;;;23.94;96.93;99820.22;5075017;28;20579;-77
2022/07/30 07:49:01;;;;;;;8.05;4.82;;;;;;;23.65;100.00;99813.75;5075291;28;20094;-74
2022/07/30 07:51:31;;;;;;;8.48;4.93;;;;;;;23.80;100.00;99812.91;5075307;28;20401;-75
2022/07/30 07:54:15;;;;;;;9.30;4.90;;;;;;;23.52;100.00;99829.84;5073699;28;20452;-72
2022/07/30 07:56:51;;;;;;;7.97;4.68;;;;;;;23.76;97.67;99836.09;5075333;28;20040;-73
2022/07/30 07:59:24;;;;;;;5.15;3.85;;;;;;;23.74;92.46;99836.28;5073608;28;20060;-74
2022/07/30 08:02:07;;;;;;;6.55;4.35;;;;;;;23.60;100.00;99848.84;5074742;28;20389;-75
2022/07/30 08:04:36;;;;;;;7.18;4.65;;;;;;;23.86;100.00;99859.28;5074947;28;20493;-72
2022/07/30 08:07:05;;;;;;;8.27;5.00;;;;;;;24.07;100.00;99879.47;5073819;28;20051;-72
2022/07/30 08:09:34;;;;;;;9.32;5.10;;;;;;;24.23;100.00;99906.53;5073797;28;20135;-70
2022/07/30 08:12:12;;;;;;;7.10;4.22;;;;;;;24.17;100.00;99905.41;5075008;28;20036;-71
2022/07/30 08:14:40;;;;;;;12.20;4.75;;;;;;;24.02;100.00;99892.81;5076436;28;20090;-69
2022/07/30 08:17:08;;;;;;;7.95;4.00;;;;;;;23.97;97.41;99877.03;5076309;28;20047;-69
2022/07/30 08:19:36;;;;;;;5.32;4.00;;;;;;;23.76;88.35;99861.44;5076522;28;20447;-69
2022/07/30 08:22:06;;;;;;;7.60;4.50;;;;;;;23.47;100.00;99856.78;5074760;28;20041;-69
2022/07/30 08:24:35;;;;;;;6.82;4.60;;;;;;;23.34;100.00;99843.78;5073441;28;20140;-69
2022/07/30 08:27:03;;;;;;;7.68;4.53;;;;;;;23.05;100.00;99849.16;5074281;28;20419;-69
2022/07/30 08:29:31;;;;;;;6.28;4.90;;;;;;;23.24;100.00;99854.09;5074244;28;20500;-69
2022/07/30 08:32:00;;;;;;;6.75;4.38;;;;;;;23.50;100.00;99847.41;5072823;28;20048;-69
2022/07/30 08:34:28;;;;;;;6.78;4.82;;;;;;;23.51;100.00;99862.69;5073146;28;20044;-69
2022/07/30 08:36:56;;;;;;;7.43;5.20;;;;;;;23.62;100.00;99882.16;5074129;28;20049;-69
2022/07/30 08:39:26;;;;;;;7.28;5.70;;;;;;;23.66;100.00;99885.38;5073907;28;20036;-69
2022/07/30 08:41:55;;;;;;;6.18;4.72;;;;;;;23.75;100.00;99876.09;5074223;28;20047;-69
2022/07/30 08:44:23;;;;;;;8.40;5.43;;;;;;;24.03;100.00;99886.31;5074140;28;20068;-69
2022/07/30 08:46:55;;;;;;;5.40;4.72;;;;;;;24.29;95.69;99889.41;5072834;28;20401;-68
2022/07/30 08:49:26;;;;;;;8.73;4.82;;;;;;;24.37;93.36;99897.53;5073577;28;20047;-72
2022/07/30 08:51:55;;;;;;;6.78;5.03;;;;;;;24.57;98.24;99886.03;5072735;28;20066;-69
2022/07/30 08:54:23;;;;;;;8.52;4.88;;;;;;;24.88;91.38;99883.84;5073625;28;20072;-72
2022/07/30 08:56:53;;;;;;;8.10;5.13;;;;;;;25.08;95.58;99873.19;5072325;28;20053;-73
2022/07/30 08:59:23;;;;;;;8.90;5.28;;;;;;;24.91;93.90;99886.22;5073614;28;20100;-74
2022/07/30 09:02:11;;;;;;;8.95;5.22;;;;;;;25.04;93.63;99882.81;5073421;28;20041;-74
2022/07/30 09:04:40;;;;;;;7.28;5.35;;;;;;;25.01;91.20;99884.00;5073718;28;20048;-74
2022/07/30 09:07:08;;;;;;;6.15;4.63;;;;;;;25.19;81.72;99880.00;5073428;28;20162;-74
2022/07/30 09:09:37;;;;;;;6.38;4.60;;;;;;;24.73;84.63;99875.75;5073487;28;20040;-73
2022/07/30 09:12:36;;;;;;;5.97;4.82;;;;;;;25.23;82.38;99875.84;5072534;28;20048;-73
2022/07/30 09:15:08;;;;;;;5.95;4.13;;;;;;;25.16;79.64;99881.25;5073724;28;20447;-73
2022/07/30 09:17:47;;;;;;;6.63;4.45;;;;;;;25.15;78.64;99873.25;5073435;28;20040;-74
2022/07/30 09:20:16;;;;;;;8.98;5.07;;;;;;;24.95;81.13;99878.47;5073525;28;20051;-75
2022/07/30 09:22:46;;;;;;;6.05;4.15;;;;;;;24.69;79.99;99860.78;5073584;28;20051;-74
2022/07/30 09:25:14;;;;;;;7.72;4.90;;;;;;;24.58;81.17;99857.72;5073427;28;20041;-74
2022/07/30 09:27:50;;;;;;;6.90;4.80;;;;;;;24.41;83.46;99870.72;5072263;28;20083;-74
2022/07/30 09:30:18;;;;;;;7.78;5.47;;;;;;;24.40;87.64;99879.94;5072892;28;20044;-74
2022/07/30 09:32:51;;;;;;;6.70;4.97;;;;;;;24.29;89.17;99875.78;5073042;28;20063;-74
2022/07/30 09:35:19;;;;;;;;;;;;;;;24.30;84.96;99874.75;5073788;28;20481;-74
2022/07/30 09:37:47;;;;;;;6.60;4.78;;;;;;;24.04;86.26;99868.97;5073339;28;20431;-74
2022/07/30 09:40:18;;;;;;;7.78;5.30;;;;;;;24.09;88.21;99869.22;5072837;28;20049;-74
2022/07/30 09:42:47;;;;;;;6.25;5.00;;;;;;;23.99;92.34;99870.38;5071755;28;20400;-73
2022/07/30 09:45:15;;;;;;;6.60;5.07;;;;;;;23.92;93.00;99861.25;5072820;28;20485;-74
2022/07/30 09:47:47;;;;;;;9.55;5.90;;;;;;;23.83;99.95;99867.81;5071992;28;20106;-74
2022/07/30 09:50:18;;;;;;;7.10;5.63;;;;;;;23.97;99.57;99871.59;5071561;28;20460;-74
2022/07/30 09:53:07;;;;;;;7.80;5.67;;;;;;;23.81;100.00;99863.59;5073208;28;20094;-73
2022/07/30 09:55:36;;;;;;;7.93;5.50;;;;;;;23.51;100.00;99884.47;5071711;28;20045;-74
2022/07/30 09:58:12;;;;;;;24.27;9.75;;;;;;;23.34;100.00;99914.53;5071843;28;20055;-74
2022/07/30 10:01:00;;;;;;;20.63;8.65;;;;;;;22.72;100.00;99936.38;5073271;28;20489;-74
2022/07/30 10:03:29;;;;;;;19.75;9.45;;;;;;;22.28;100.00;99964.06;5072692;28;20077;-74
2022/07/30 10:06:09;;;;;;;15.63;9.48;;;;;;;21.93;100.00;99980.75;5072961;28;20140;-74
2022/07/30 10:08:41;;;;;;;25.50;12.35;;;;;;;21.49;100.00;99970.25;5071847;28;20040;-73
2022/07/30 10:11:15;;;;;;;18.98;12.82;;;;;;;20.85;100.00;99947.44;5072718;28;20037;-75
2022/07/30 10:13:44;;;;;;;20.65;12.00;;;;;;;20.93;100.00;99931.16;5071494;28;20135;-74
2022/07/30 10:16:13;;;;;;;20.85;12.05;;;;;;;20.91;100.00;99900.66;5071384;28;20055;-76
2022/07/30 10:18:43;;;;;;;21.63;13.38;;;;;;;20.73;100.00;99900.81;5068845;28;20045;-70
2022/07/30 10:21:12;;;;;;;22.60;12.95;;;;;;;20.78;100.00;99887.63;5057642;28;20099;-70
2022/07/30 10:23:44;;;;;;;18.33;13.68;;;;;;;20.72;100.00;99882.00;5052572;28;20045;-70
2022/07/30 10:26:18;;;;;;;20.33;13.55;;;;;;;20.57;100.00;99885.38;5052423;28;20076;-71
2022/07/30 10:28:50;;;;;;;18.40;14.23;;;;;;;20.80;100.00;99903.69;5052503;28;20048;-70
2022/07/30 10:31:19;;;;;;;21.67;14.55;;;;;;;20.89;100.00;99910.84;5067822;28;20056;-71
2022/07/30 10:34:07;;;;;;;18.70;14.50;;;;;;;20.91;100.00;99924.22;5052517;28;20049;-69
2022/07/30 10:36:41;;;;;;;18.70;14.30;;;;;;;20.94;100.00;99927.47;5052137;28;20136;-70
2022/07/30 10:39:13;;;;;;;20.02;15.30;;;;;;;21.13;100.00;99919.03;5052434;28;20447;-70
2022/07/30 10:41:52;;;;;;;18.33;14.52;;;;;;;21.09;100.00;99924.94;5052470;28;20060;-70
2022/07/30 10:44:50;;;;;;;20.38;16.10;;;;;;;21.17;100.00;99921.38;5070253;28;20119;-70
2022/07/30 10:47:19;;;;;;;18.70;13.40;;;;;;;21.16;100.00;99931.38;5068184;28;20037;-73
2022/07/30 10:50:06;;;;;;;23.33;15.18;;;;;;;21.30;100.00;99925.31;5072380;28;20444;-70
2022/07/30 10:52:50;;;;;;;19.38;14.50;;;;;;;21.29;100.00;99911.91;5072427;28;20425;-71
2022/07/30 10:55:21;;;;;;;15.63;12.65;;;;;;;21.50;100.00;99911.41;5072307;28;20477;-72
2022/07/30 10:58:07;;;;;;;17.20;13.32;;;;;;;21.43;100.00;99908.53;5072172;28;20072;-71
2022/07/30 11:00:58;;;;;;;17.70;13.25;;;;;;;21.52;100.00;99896.66;5075699;28;20072;-71
2022/07/30 11:03:27;;;;;;;15.88;13.20;;;;;;;21.55;100.00;99890.03;5076017;28;20048;-71
2022/07/30 11:06:27;;;;;;;17.77;13.13;;;;;;;21.65;100.00;99886.13;5074605;28;20052;-71
2022/07/30 11:08:56;;;;;;;16.75;12.40;;;;;;;21.70;100.00;99878.28;5076206;28;20095;-71
2022/07/30 11:11:46;;;;;;;17.70;13.02;;;;;;;21.63;100.00;99871.03;5074253;28;20489;-71
2022/07/30 11:15:00;;;;;;;16.48;13.05;;;;;;;21.51;100.00;99859.66;5075408;28;20454;-71
2022/07/30 11:18:07;;;;;;;16.92;13.82;;;;;;;21.44;100.00;99845.13;5076013;28;20404;-71
2022/07/30 11:20:41;;;;;;;16.58;13.65;;;;;;;21.70;100.00;99843.00;5075606;28;20089;-71
2022/07/30 11:23:38;;;;;;;17.27;13.80;;;;;;;21.83;100.00;99833.50;5075599;28;20037;-70
2022/07/30 11:26:07;;;;;;;17.38;13.98;;;;;;;21.90;100.00;99829.03;5074612;28;20413;-71
2022/07/30 11:28:46;;;;;;;19.67;14.90;;;;;;;22.13;100.00;99824.56;5073999;28;20382;-71
2022/07/30 11:31:28;;;;;;;17.70;14.70;;;;;;;22.28;100.00;99822.78;5075501;28;20051;-71
2022/07/30 11:34:30;;;;;;;16.98;14.45;;;;;;;22.31;100.00;99823.47;5075374;28;20106;-71
2022/07/30 11:37:14;;;;;;;18.40;14.50;;;;;;;22.79;100.00;99828.59;5075304;28;20404;-70
2022/07/30 11:40:08;;;;;;;10.73;8.70;;;;;;;22.62;100.00;99837.88;5075677;28;20128;-73
2022/07/30 11:42:38;;;;;;;9.18;6.90;;;;;;;22.63;100.00;99841.44;5073592;28;20076;-74
2022/07/30 11:45:31;;;;;;;9.00;8.00;;;;;;;22.84;100.00;99834.34;5075169;28;20537;-70
2022/07/30 11:48:02;;;;;;;;;;;;;;;22.88;100.00;99847.59;5075196;28;20090;-71
2022/07/30 11:50:34;;;;;;;9.50;7.65;;;;;;;23.30;100.00;99839.75;5075105;28;19924;-72